This is the latest recevied weather packets stored in our database for station/object SV9TNF-51. If no packets are shown the sender has not sent any weather packets the latest 10 day(s).
| Time | Temp. | Humidity | Pressure | Rain* | Wind** | Luminosity | Snow |
|---|---|---|---|---|---|---|---|
| 1788430451 | 31.67° C | 50% | 1009.8 hPa | 0 mm | 8.49 m/s, 309° | - | - |
| 1788430151 | 31.67° C | 51% | 1009.8 hPa | 0 mm | 13.86 m/s, 343° | - | - |
| 1788429851 | 32.78° C | 49% | 1009.8 hPa | 0 mm | 8.05 m/s, 293° | - | - |
| 1788429551 | 33.33° C | 47% | 1009.8 hPa | 0 mm | 7.15 m/s, 318° | - | - |
| 1788429251 | 32.78° C | 47% | 1009.8 hPa | 0 mm | 8.05 m/s, 129° | - | - |
| 1788428950 | 32.78° C | 47% | 1010.5 hPa | 0 mm | 4.92 m/s, 323° | - | - |
| 1788428650 | 33.33° C | 45% | 1010.5 hPa | 0 mm | 0.45 m/s, 152° | - | - |
| 1788428350 | 32.22° C | 48% | 1010.5 hPa | 0 mm | 5.81 m/s, 338° | - | - |
| 1788428050 | 32.78° C | 46% | 1010.5 hPa | 0 mm | 2.68 m/s, 113° | - | - |
| 1788427750 | 32.22° C | 48% | 1010.5 hPa | 0 mm | 5.81 m/s, 167° | - | - |
| 1788427450 | 32.22° C | 47% | 1010.5 hPa | 0 mm | 6.26 m/s, 333° | - | - |
| 1788427150 | 32.22° C | 47% | 1010.5 hPa | 0 mm | 1.79 m/s, 129° | - | - |
| 1788426850 | 32.22° C | 47% | 1010.5 hPa | 0 mm | 3.58 m/s, 344° | - | - |
| 1788426549 | 31.67° C | 48% | 1010.5 hPa | 0 mm | 5.36 m/s, 81° | - | - |
| 1788426250 | 32.22° C | 47% | 1010.5 hPa | 0 mm | 1.79 m/s, 125° | - | - |
| 1788425950 | 32.22° C | 47% | 1010.8 hPa | 0 mm | 4.92 m/s, 334° | - | - |
| 1788425649 | 31.67° C | 48% | 1010.8 hPa | 0 mm | 8.94 m/s, 341° | - | - |
| 1788425349 | 32.22° C | 47% | 1010.8 hPa | 0 mm | 4.92 m/s, 315° | - | - |
| 1788425049 | 32.22° C | 46% | 1010.8 hPa | 0 mm | 3.13 m/s, 123° | - | - |
| 1788424749 | 33.33° C | 45% | 1010.8 hPa | 0 mm | 0 m/s | - | - |
| 1788424449 | 32.78° C | 45% | 1010.8 hPa | 0 mm | 1.79 m/s, 189° | - | - |
| 1788424149 | 32.22° C | 45% | 1010.8 hPa | 0 mm | 5.36 m/s, 302° | - | - |
| 1788423849 | 32.78° C | 45% | 1010.8 hPa | 0 mm | 1.79 m/s, 117° | - | - |
| 1788423549 | 32.78° C | 44% | 1010.8 hPa | 0 mm | 4.92 m/s, 271° | - | - |
| 1788423249 | 32.22° C | 44% | 1010.8 hPa | 0 mm | 3.58 m/s, 131° | - | - |
* Rain latest hour (hover to see other rain measurements)
** Current wind speed in m/s (hover to see current wind gust speed)